createdAt,value
2023-02-22T00:01:23.279Z,100.00
2023-02-22T00:03:52.608Z,100.00
2023-02-22T00:06:24.993Z,100.00
2023-02-22T00:08:53.411Z,100.00
2023-02-22T00:11:21.505Z,100.00
2023-02-22T00:13:50.775Z,100.00
2023-02-22T00:16:20.219Z,100.00
2023-02-22T00:18:48.460Z,100.00
2023-02-22T00:21:17.124Z,100.00
2023-02-22T00:23:48.000Z,100.00
2023-02-22T00:26:18.382Z,100.00
2023-02-22T00:28:47.327Z,100.00
2023-02-22T00:31:15.713Z,100.00
2023-02-22T00:33:43.966Z,100.00
2023-02-22T00:36:13.320Z,100.00
2023-02-22T00:38:41.586Z,100.00
2023-02-22T00:41:11.442Z,100.00
2023-02-22T00:43:39.153Z,100.00
2023-02-22T00:46:06.784Z,100.00
2023-02-22T00:48:34.366Z,100.00
2023-02-22T00:51:02.170Z,100.00
2023-02-22T00:53:30.099Z,100.00
2023-02-22T00:55:57.675Z,100.00
2023-02-22T00:58:26.906Z,100.00
2023-02-22T01:00:55.008Z,100.00
2023-02-22T01:03:22.560Z,100.00
2023-02-22T01:05:50.673Z,100.00
2023-02-22T01:08:18.732Z,100.00
2023-02-22T01:10:47.196Z,100.00
2023-02-22T01:13:14.843Z,100.00
2023-02-22T01:15:45.288Z,100.00
2023-02-22T01:18:17.198Z,100.00
2023-02-22T01:20:50.798Z,100.00
2023-02-22T01:23:18.418Z,100.00
2023-02-22T01:25:46.126Z,100.00
2023-02-22T01:28:15.186Z,100.00
2023-02-22T01:30:44.299Z,100.00
2023-02-22T01:33:12.777Z,100.00
2023-02-22T01:35:41.806Z,100.00
2023-02-22T01:38:10.239Z,100.00
2023-02-22T01:40:39.211Z,100.00
2023-02-22T01:43:20.259Z,100.00
2023-02-22T01:45:55.202Z,100.00
2023-02-22T01:48:27.358Z,100.00
2023-02-22T01:50:57.873Z,100.00
2023-02-22T01:53:28.107Z,100.00
2023-02-22T01:55:57.423Z,100.00
2023-02-22T01:58:25.929Z,100.00
2023-02-22T02:00:55.283Z,100.00
2023-02-22T02:03:27.500Z,100.00
2023-02-22T02:05:59.383Z,100.00
2023-02-22T02:08:36.033Z,100.00
2023-02-22T02:11:07.939Z,100.00
2023-02-22T02:13:36.490Z,100.00
2023-02-22T02:16:05.989Z,100.00
2023-02-22T02:18:33.826Z,100.00
2023-02-22T02:21:37.721Z,100.00
2023-02-22T02:24:22.689Z,100.00
2023-02-22T02:27:11.464Z,100.00
2023-02-22T02:30:19.256Z,100.00
2023-02-22T02:32:53.788Z,100.00
2023-02-22T02:35:29.865Z,100.00
2023-02-22T02:37:58.911Z,100.00
2023-02-22T02:40:31.512Z,100.00
2023-02-22T02:43:01.975Z,100.00
2023-02-22T02:45:32.062Z,100.00
2023-02-22T02:48:02.515Z,100.00
2023-02-22T02:50:35.057Z,100.00
2023-02-22T02:53:06.101Z,100.00
2023-02-22T02:55:36.605Z,100.00
2023-02-22T02:58:05.802Z,100.00
2023-02-22T03:00:39.268Z,100.00
2023-02-22T03:03:23.483Z,100.00
2023-02-22T03:06:07.163Z,100.00
2023-02-22T03:08:42.309Z,100.00
2023-02-22T03:11:16.155Z,100.00
2023-02-22T03:13:52.760Z,100.00
2023-02-22T03:16:24.594Z,100.00
2023-02-22T03:18:56.494Z,100.00
2023-02-22T03:21:27.616Z,100.00
2023-02-22T03:24:02.076Z,100.00
2023-02-22T03:26:34.333Z,100.00
2023-02-22T03:29:05.104Z,100.00
2023-02-22T03:31:37.254Z,100.00
2023-02-22T03:34:09.623Z,100.00
2023-02-22T03:36:40.797Z,100.00
2023-02-22T03:39:10.463Z,100.00
2023-02-22T03:41:39.789Z,100.00
2023-02-22T03:44:09.845Z,100.00
2023-02-22T03:46:40.224Z,100.00
2023-02-22T03:49:13.209Z,100.00
2023-02-22T03:51:40.997Z,100.00
2023-02-22T03:54:16.227Z,100.00
2023-02-22T03:56:47.429Z,100.00
2023-02-22T03:59:15.186Z,100.00
2023-02-22T04:01:42.721Z,100.00
2023-02-22T04:04:11.757Z,100.00
2023-02-22T04:06:39.297Z,100.00
2023-02-22T04:09:08.676Z,100.00
2023-02-22T04:11:36.257Z,100.00
2023-02-22T04:14:03.957Z,100.00
2023-02-22T04:16:31.671Z,100.00
2023-02-22T04:18:59.344Z,100.00
2023-02-22T04:21:28.733Z,100.00
2023-02-22T04:23:56.392Z,100.00
2023-02-22T04:26:23.885Z,100.00
2023-02-22T04:28:51.484Z,100.00
2023-02-22T04:31:19.640Z,100.00
2023-02-22T04:33:47.490Z,100.00
2023-02-22T04:36:16.082Z,100.00
2023-02-22T04:38:45.006Z,100.00
2023-02-22T04:41:12.974Z,100.00
2023-02-22T04:43:40.844Z,100.00
2023-02-22T04:46:08.662Z,100.00
2023-02-22T04:48:36.279Z,100.00
2023-02-22T04:51:03.866Z,100.00
2023-02-22T04:53:31.442Z,100.00
2023-02-22T04:56:00.329Z,100.00
2023-02-22T04:58:27.993Z,100.00
2023-02-22T05:00:55.550Z,100.00
2023-02-22T05:03:23.088Z,100.00
2023-02-22T05:05:50.617Z,100.00
2023-02-22T05:08:18.181Z,100.00
2023-02-22T05:10:45.928Z,100.00
2023-02-22T05:13:15.113Z,100.00
2023-02-22T05:15:42.759Z,100.00
2023-02-22T05:18:10.639Z,100.00
2023-02-22T05:20:38.322Z,100.00
2023-02-22T05:23:06.472Z,100.00
2023-02-22T05:25:34.322Z,100.00
2023-02-22T05:28:05.247Z,100.00
2023-02-22T05:30:36.458Z,100.00
2023-02-22T05:33:04.032Z,100.00
2023-02-22T05:35:31.728Z,100.00
2023-02-22T05:38:01.863Z,100.00
2023-02-22T05:40:30.238Z,100.00
2023-02-22T05:42:58.600Z,100.00
2023-02-22T05:45:28.026Z,100.00
2023-02-22T05:47:57.164Z,100.00
2023-02-22T05:50:25.344Z,100.00
2023-02-22T05:52:53.601Z,100.00
2023-02-22T05:55:23.088Z,100.00
2023-02-22T05:57:50.889Z,100.00
2023-02-22T06:00:23.257Z,100.00
2023-02-22T06:02:56.557Z,100.00
2023-02-22T06:05:24.824Z,100.00
2023-02-22T06:07:52.440Z,100.00
2023-02-22T06:10:20.119Z,100.00
2023-02-22T06:12:47.909Z,100.00
2023-02-22T06:15:15.845Z,100.00
2023-02-22T06:17:43.510Z,100.00
2023-02-22T06:20:14.962Z,100.00
2023-02-22T06:22:42.650Z,100.00
2023-02-22T06:25:11.573Z,100.00
2023-02-22T06:27:39.387Z,100.00
2023-02-22T06:30:08.233Z,100.00
2023-02-22T06:32:35.825Z,100.00
2023-02-22T06:35:03.333Z,100.00
2023-02-22T06:37:32.493Z,100.00
2023-02-22T06:40:04.973Z,100.00
2023-02-22T06:42:33.177Z,100.00
2023-02-22T06:45:00.897Z,100.00
2023-02-22T06:47:28.624Z,100.00
2023-02-22T06:49:56.759Z,100.00
2023-02-22T06:52:25.014Z,100.00
2023-02-22T06:54:53.959Z,100.00
2023-02-22T06:57:21.525Z,100.00
2023-02-22T06:59:49.047Z,100.00
2023-02-22T07:02:16.639Z,100.00
2023-02-22T07:04:46.385Z,100.00
2023-02-22T07:07:13.976Z,100.00
2023-02-22T07:09:41.652Z,100.00
2023-02-22T07:12:10.537Z,100.00
2023-02-22T07:14:38.066Z,100.00
2023-02-22T07:17:05.601Z,100.00
2023-02-22T07:19:33.464Z,100.00
2023-02-22T07:22:01.090Z,100.00
2023-02-22T07:24:29.062Z,100.00
2023-02-22T07:26:56.853Z,100.00
2023-02-22T07:29:25.710Z,100.00
2023-02-22T07:31:53.231Z,100.00
2023-02-22T07:34:20.785Z,100.00
2023-02-22T07:36:48.828Z,100.00
2023-02-22T07:39:16.372Z,100.00
2023-02-22T07:41:43.894Z,100.00
2023-02-22T07:44:11.416Z,100.00
2023-02-22T07:46:40.327Z,100.00
2023-02-22T07:49:07.861Z,100.00
2023-02-22T07:51:35.412Z,100.00
2023-02-22T07:54:02.927Z,100.00
2023-02-22T07:56:30.484Z,100.00
2023-02-22T07:58:58.006Z,100.00
2023-02-22T08:01:25.718Z,100.00
2023-02-22T08:03:55.853Z,100.00
2023-02-22T08:06:25.827Z,100.00
2023-02-22T08:08:53.364Z,100.00
2023-02-22T08:11:20.949Z,100.00
2023-02-22T08:13:48.531Z,100.00
2023-02-22T08:16:16.213Z,100.00
2023-02-22T08:18:43.766Z,100.00
2023-02-22T08:21:12.741Z,100.00
2023-02-22T08:23:40.280Z,100.00
2023-02-22T08:26:09.081Z,100.00
2023-02-22T08:28:36.647Z,100.00
2023-02-22T08:31:07.236Z,100.00
2023-02-22T08:33:35.515Z,100.00
2023-02-22T08:36:03.200Z,100.00
2023-02-22T08:38:33.912Z,100.00
2023-02-22T08:41:01.469Z,100.00
2023-02-22T08:43:29.615Z,100.00
2023-02-22T08:45:57.901Z,100.00
2023-02-22T08:48:25.602Z,100.00
2023-02-22T08:50:53.156Z,100.00
2023-02-22T08:53:20.701Z,100.00
2023-02-22T08:55:50.349Z,100.00
2023-02-22T08:58:17.880Z,100.00
2023-02-22T09:00:45.605Z,100.00
2023-02-22T09:03:14.601Z,100.00
2023-02-22T09:05:42.380Z,100.00
2023-02-22T09:08:10.297Z,100.00
2023-02-22T09:10:38.176Z,100.00
2023-02-22T09:13:07.569Z,100.00
2023-02-22T09:15:36.808Z,100.00
2023-02-22T09:18:05.678Z,100.00
2023-02-22T09:20:34.585Z,100.00
2023-02-22T09:23:03.969Z,100.00
2023-02-22T09:25:31.691Z,100.00
2023-02-22T09:27:59.221Z,100.00
2023-02-22T09:30:32.258Z,100.00
2023-02-22T09:33:02.247Z,100.00
2023-02-22T09:35:30.430Z,100.00
2023-02-22T09:37:59.459Z,100.00
2023-02-22T09:40:29.900Z,100.00
2023-02-22T09:43:08.678Z,100.00
2023-02-22T09:45:40.516Z,100.00
2023-02-22T09:48:21.192Z,100.00
2023-02-22T09:50:50.663Z,100.00
2023-02-22T09:53:29.680Z,100.00
2023-02-22T09:56:00.963Z,100.00
2023-02-22T09:58:34.325Z,100.00
2023-02-22T10:01:14.750Z,100.00
2023-02-22T10:03:50.617Z,100.00
2023-02-22T10:06:24.094Z,100.00
2023-02-22T10:08:56.486Z,100.00
2023-02-22T10:11:44.239Z,100.00
2023-02-22T10:14:29.298Z,100.00
2023-02-22T10:17:03.385Z,100.00
2023-02-22T10:19:33.413Z,100.00
2023-02-22T10:22:18.837Z,100.00
2023-02-22T10:24:53.789Z,100.00
2023-02-22T10:27:23.917Z,100.00
2023-02-22T10:29:56.163Z,100.00
2023-02-22T10:32:31.699Z,100.00
2023-02-22T10:34:59.928Z,100.00
2023-02-22T10:37:29.804Z,100.00
2023-02-22T10:40:05.426Z,100.00
2023-02-22T10:42:33.070Z,100.00
2023-02-22T10:45:00.768Z,100.00
2023-02-22T10:47:30.617Z,100.00
2023-02-22T10:50:00.484Z,100.00
2023-02-22T10:52:30.091Z,100.00
2023-02-22T10:55:14.144Z,100.00
2023-02-22T10:57:43.950Z,100.00
2023-02-22T11:00:19.688Z,100.00
2023-02-22T11:02:54.497Z,100.00
2023-02-22T11:05:36.764Z,100.00
2023-02-22T11:08:28.046Z,100.00
2023-02-22T11:10:57.501Z,100.00
2023-02-22T11:13:26.863Z,100.00
2023-02-22T11:15:55.304Z,100.00
2023-02-22T11:18:27.514Z,100.00
2023-02-22T11:21:03.972Z,100.00
2023-02-22T11:23:31.847Z,100.00
2023-02-22T11:26:07.318Z,99.35
2023-02-22T11:28:35.419Z,98.23
2023-02-22T11:31:17.457Z,96.09
2023-02-22T11:36:37.336Z,94.28
2023-02-22T11:39:11.634Z,93.28
2023-02-22T11:41:39.370Z,92.86
2023-02-22T11:44:21.426Z,90.92
2023-02-22T11:46:49.258Z,91.63
2023-02-22T11:49:20.048Z,91.00
2023-02-22T11:51:57.389Z,90.58
2023-02-22T11:54:34.586Z,90.96
2023-02-22T11:57:16.026Z,88.95
2023-02-22T11:59:48.688Z,87.52
2023-02-22T12:02:30.853Z,86.71
2023-02-22T12:05:13.332Z,86.87
2023-02-22T12:07:56.378Z,84.15
2023-02-22T12:10:34.908Z,84.16
2023-02-22T12:13:10.960Z,81.72
2023-02-22T12:15:42.937Z,81.22
2023-02-22T12:18:14.281Z,83.28
2023-02-22T12:20:47.639Z,81.60
2023-02-22T12:23:20.026Z,81.44
2023-02-22T12:25:58.371Z,79.50
2023-02-22T12:28:31.798Z,80.03
2023-02-22T12:31:07.813Z,80.70
2023-02-22T12:33:48.826Z,80.76
2023-02-22T12:36:20.858Z,78.69
2023-02-22T12:38:52.973Z,78.99
2023-02-22T12:41:27.999Z,78.46
2023-02-22T12:43:59.805Z,78.20
2023-02-22T12:46:31.748Z,77.93
2023-02-22T12:49:03.371Z,78.02
2023-02-22T12:51:35.673Z,77.98
2023-02-22T12:54:08.689Z,79.41
2023-02-22T12:56:41.153Z,78.64
2023-02-22T12:59:13.492Z,76.88
2023-02-22T13:01:43.331Z,77.43
2023-02-22T13:04:20.666Z,75.35
2023-02-22T13:07:02.634Z,75.70
2023-02-22T13:10:00.608Z,75.24
2023-02-22T13:12:33.601Z,75.71
2023-02-22T13:15:09.479Z,75.93
2023-02-22T13:17:41.721Z,76.56
2023-02-22T13:20:14.320Z,76.59
2023-02-22T13:22:46.621Z,75.70
2023-02-22T13:25:17.477Z,75.03
2023-02-22T13:27:48.696Z,75.22
2023-02-22T13:30:21.881Z,75.20
2023-02-22T13:33:04.007Z,76.25
2023-02-22T13:35:40.944Z,76.00
2023-02-22T13:38:47.445Z,76.41
2023-02-22T13:41:37.417Z,76.13
2023-02-22T13:44:19.945Z,76.55
2023-02-22T13:47:10.297Z,75.68
2023-02-22T13:49:51.382Z,76.45
2023-02-22T13:52:21.349Z,75.74
2023-02-22T13:54:54.409Z,76.58
2023-02-22T13:57:24.654Z,76.19
2023-02-22T14:00:21.007Z,75.64
2023-02-22T14:03:01.276Z,76.70
2023-02-22T14:05:51.884Z,76.89
2023-02-22T14:08:46.091Z,75.73
2023-02-22T14:11:56.761Z,75.70
2023-02-22T14:14:25.910Z,76.03
2023-02-22T14:17:22.778Z,77.69
2023-02-22T14:20:16.640Z,77.48
2023-02-22T14:22:46.950Z,77.78
2023-02-22T14:25:34.239Z,77.89
2023-02-22T14:28:02.853Z,77.00
2023-02-22T14:30:33.320Z,76.87
2023-02-22T14:33:01.619Z,77.71
2023-02-22T14:35:47.871Z,76.75
2023-02-22T14:38:19.182Z,76.00
2023-02-22T14:40:49.350Z,76.03
2023-02-22T14:43:20.132Z,74.90
2023-02-22T14:45:54.265Z,75.84
2023-02-22T14:48:28.408Z,75.12
2023-02-22T14:51:02.017Z,75.90
2023-02-22T14:53:39.222Z,74.83
2023-02-22T14:56:11.786Z,74.50
2023-02-22T14:58:45.162Z,73.79
2023-02-22T15:01:33.955Z,73.71
2023-02-22T15:04:21.470Z,73.37
2023-02-22T15:06:49.406Z,73.39
2023-02-22T15:09:25.110Z,72.57
2023-02-22T15:11:56.214Z,73.75
2023-02-22T15:14:26.915Z,72.93
2023-02-22T15:16:57.815Z,72.89
2023-02-22T15:19:28.419Z,73.61
2023-02-22T15:21:57.474Z,74.40
2023-02-22T15:24:27.956Z,74.60
2023-02-22T15:27:02.486Z,74.50
2023-02-22T15:29:36.301Z,75.33
2023-02-22T15:32:19.792Z,75.86
2023-02-22T15:34:47.438Z,76.13
2023-02-22T15:37:25.144Z,77.59
2023-02-22T15:39:59.189Z,77.41
2023-02-22T15:42:29.422Z,78.20
2023-02-22T15:44:58.081Z,78.33
2023-02-22T15:47:29.261Z,79.23
2023-02-22T15:50:18.237Z,79.86
2023-02-22T15:52:53.136Z,80.45
2023-02-22T15:55:24.789Z,81.57
2023-02-22T15:57:53.474Z,82.12
2023-02-22T16:00:23.769Z,83.10
2023-02-22T16:02:52.931Z,83.59
2023-02-22T16:05:20.573Z,84.74
2023-02-22T16:07:49.987Z,85.19
2023-02-22T16:10:22.734Z,86.27
2023-02-22T16:12:50.361Z,87.16
2023-02-22T16:15:20.010Z,88.11
2023-02-22T16:18:01.694Z,89.34
2023-02-22T16:20:36.426Z,90.49
2023-02-22T16:23:26.048Z,91.08
2023-02-22T16:26:08.060Z,92.05
2023-02-22T16:28:35.973Z,93.65
2023-02-22T16:31:04.251Z,94.44
2023-02-22T16:33:34.069Z,95.44
2023-02-22T16:36:08.115Z,97.50
2023-02-22T16:38:38.480Z,99.73
2023-02-22T16:41:07.305Z,100.00
2023-02-22T16:43:36.827Z,100.00
2023-02-22T16:46:06.810Z,100.00
2023-02-22T16:48:38.106Z,100.00
2023-02-22T16:51:14.757Z,100.00
2023-02-22T16:53:42.457Z,100.00
2023-02-22T16:56:11.610Z,100.00
2023-02-22T16:58:41.433Z,100.00
2023-02-22T17:01:09.470Z,100.00
2023-02-22T17:03:38.021Z,100.00
2023-02-22T17:06:06.077Z,100.00
2023-02-22T17:08:34.939Z,100.00
2023-02-22T17:11:03.213Z,100.00
2023-02-22T17:13:30.877Z,100.00
2023-02-22T17:15:58.812Z,100.00
2023-02-22T17:18:28.785Z,100.00
2023-02-22T17:20:57.341Z,100.00
2023-02-22T17:23:27.530Z,100.00
2023-02-22T17:25:59.263Z,100.00
2023-02-22T17:28:27.520Z,100.00
2023-02-22T17:31:00.482Z,100.00
2023-02-22T17:33:30.639Z,100.00
2023-02-22T17:35:59.817Z,100.00
2023-02-22T17:38:29.051Z,100.00
2023-02-22T17:40:59.317Z,100.00
2023-02-22T17:43:28.749Z,100.00
2023-02-22T17:45:56.431Z,100.00
2023-02-22T17:48:24.629Z,100.00
2023-02-22T17:50:52.793Z,100.00
2023-02-22T17:53:24.998Z,100.00
2023-02-22T17:55:53.087Z,100.00
2023-02-22T17:58:23.542Z,100.00
2023-02-22T18:00:51.825Z,100.00
2023-02-22T18:03:21.951Z,100.00
2023-02-22T18:05:51.102Z,100.00
2023-02-22T18:08:18.767Z,100.00
2023-02-22T18:10:47.188Z,100.00
2023-02-22T18:13:17.868Z,100.00
2023-02-22T18:15:48.528Z,100.00
2023-02-22T18:18:17.667Z,100.00
2023-02-22T18:20:45.750Z,100.00
2023-02-22T18:23:15.997Z,100.00
2023-02-22T18:25:57.146Z,100.00
2023-02-22T18:28:32.218Z,100.00
2023-02-22T18:31:01.264Z,100.00
2023-02-22T18:33:28.999Z,100.00
2023-02-22T18:35:56.552Z,100.00
2023-02-22T18:38:24.752Z,100.00
2023-02-22T18:40:59.841Z,100.00
2023-02-22T18:43:27.801Z,100.00
2023-02-22T18:45:55.587Z,100.00
2023-02-22T18:48:24.442Z,100.00
2023-02-22T18:50:51.972Z,100.00
2023-02-22T18:53:19.520Z,100.00
2023-02-22T18:55:47.094Z,100.00
2023-02-22T18:58:14.675Z,100.00
2023-02-22T19:00:42.837Z,100.00
2023-02-22T19:03:10.545Z,100.00
2023-02-22T19:05:39.552Z,100.00
2023-02-22T19:08:11.196Z,100.00
2023-02-22T19:10:39.072Z,100.00
2023-02-22T19:13:10.754Z,100.00
2023-02-22T19:15:39.457Z,100.00
2023-02-22T19:18:07.149Z,100.00
2023-02-22T19:20:34.736Z,100.00
2023-02-22T19:23:03.672Z,100.00
2023-02-22T19:25:31.198Z,100.00
2023-02-22T19:27:59.096Z,100.00
2023-02-22T19:30:27.966Z,100.00
2023-02-22T19:32:55.744Z,100.00
2023-02-22T19:35:27.071Z,100.00
2023-02-22T19:37:55.421Z,100.00
2023-02-22T19:40:24.332Z,100.00
2023-02-22T19:42:53.038Z,100.00
2023-02-22T19:45:20.933Z,100.00
2023-02-22T19:47:48.848Z,100.00
2023-02-22T19:50:18.672Z,100.00
2023-02-22T19:52:46.297Z,100.00
2023-02-22T19:55:14.248Z,100.00
2023-02-22T19:57:46.313Z,100.00
2023-02-22T20:00:23.981Z,100.00
2023-02-22T20:03:05.855Z,100.00
2023-02-22T20:05:37.278Z,100.00
2023-02-22T20:08:05.087Z,100.00
2023-02-22T20:10:34.373Z,100.00
2023-02-22T20:13:03.480Z,100.00
2023-02-22T20:15:31.348Z,100.00
2023-02-22T20:18:00.125Z,100.00
2023-02-22T20:20:30.501Z,100.00
2023-02-22T20:22:58.709Z,100.00
2023-02-22T20:25:26.280Z,100.00
2023-02-22T20:27:53.782Z,100.00
2023-02-22T20:30:23.051Z,100.00
2023-02-22T20:32:50.796Z,100.00
2023-02-22T20:35:18.531Z,100.00
2023-02-22T20:37:46.440Z,100.00
2023-02-22T20:40:13.989Z,100.00
2023-02-22T20:42:41.603Z,100.00
2023-02-22T20:45:11.927Z,100.00
2023-02-22T20:47:40.953Z,100.00
2023-02-22T20:50:09.904Z,100.00
2023-02-22T20:52:37.532Z,100.00
2023-02-22T20:55:06.185Z,100.00
2023-02-22T20:57:33.744Z,100.00
2023-02-22T21:00:01.281Z,100.00
2023-02-22T21:02:28.812Z,100.00
2023-02-22T21:04:58.152Z,100.00
2023-02-22T21:07:25.812Z,100.00
2023-02-22T21:09:53.384Z,100.00
2023-02-22T21:12:21.075Z,100.00
2023-02-22T21:14:48.700Z,100.00
2023-02-22T21:17:21.483Z,100.00
2023-02-22T21:19:49.060Z,100.00
2023-02-22T21:22:17.935Z,100.00
2023-02-22T21:24:45.515Z,100.00
2023-02-22T21:27:13.052Z,100.00
2023-02-22T21:29:40.702Z,100.00
2023-02-22T21:32:10.783Z,100.00
2023-02-22T21:34:39.178Z,100.00
2023-02-22T21:37:08.442Z,100.00
2023-02-22T21:39:37.346Z,100.00
2023-02-22T21:42:07.155Z,100.00
2023-02-22T21:44:34.681Z,100.00
2023-02-22T21:47:02.235Z,100.00
2023-02-22T21:49:29.981Z,100.00
2023-02-22T21:51:57.609Z,100.00
2023-02-22T21:54:27.949Z,100.00
2023-02-22T21:56:57.083Z,100.00
2023-02-22T21:59:24.872Z,100.00
2023-02-22T22:01:55.826Z,100.00
2023-02-22T22:04:27.397Z,100.00
2023-02-22T22:06:57.307Z,100.00
2023-02-22T22:09:28.901Z,100.00
2023-02-22T22:11:59.307Z,100.00
2023-02-22T22:14:27.357Z,100.00
2023-02-22T22:16:58.427Z,100.00
2023-02-22T22:19:26.454Z,100.00
2023-02-22T22:21:54.440Z,100.00
2023-02-22T22:24:23.429Z,100.00
2023-02-22T22:26:54.524Z,100.00
2023-02-22T22:29:24.565Z,100.00
2023-02-22T22:31:52.889Z,100.00
2023-02-22T22:34:20.813Z,100.00
2023-02-22T22:36:48.464Z,100.00
2023-02-22T22:39:16.069Z,100.00
2023-02-22T22:41:45.089Z,100.00
2023-02-22T22:44:15.221Z,100.00
2023-02-22T22:46:49.054Z,100.00
2023-02-22T22:49:17.166Z,100.00
2023-02-22T22:51:47.316Z,100.00
2023-02-22T22:54:15.694Z,100.00
2023-02-22T22:56:43.239Z,100.00
2023-02-22T22:59:13.788Z,100.00
2023-02-22T23:01:44.346Z,100.00
2023-02-22T23:04:16.201Z,100.00
2023-02-22T23:06:45.307Z,100.00
2023-02-22T23:09:18.708Z,100.00
2023-02-22T23:11:50.504Z,100.00
2023-02-22T23:14:19.786Z,100.00
2023-02-22T23:16:47.409Z,100.00
2023-02-22T23:19:16.703Z,100.00
2023-02-22T23:21:44.757Z,100.00
2023-02-22T23:24:15.151Z,100.00
2023-02-22T23:26:43.052Z,100.00
2023-02-22T23:29:10.580Z,100.00
2023-02-22T23:31:42.679Z,100.00
2023-02-22T23:34:11.334Z,100.00
2023-02-22T23:36:44.269Z,100.00
2023-02-22T23:39:12.406Z,100.00
2023-02-22T23:41:39.957Z,100.00
2023-02-22T23:44:13.963Z,100.00
2023-02-22T23:46:42.134Z,100.00
2023-02-22T23:49:10.185Z,100.00
2023-02-22T23:51:41.943Z,100.00
2023-02-22T23:54:14.140Z,100.00
2023-02-22T23:56:47.100Z,100.00
2023-02-22T23:59:15.538Z,100.00
